• Join FlightAware (Why Join?)
  • Login
  • US Flag 
09:43AM EST


 

Airport Tracker/Info


-or-


 

Live Flight TrackerFlight Track Log ✈ N3376G ✈ 13-04-2012 ✈ KBDL - 9G0

Flight Track Log - Related Links

Times and Time Zones

All times are in EDT time to prevent confusion due to time zone crossing. See the N3376G flight status page for this flight to view local times or setup timezone preferences in your user account.

Time Position Orientation Groundspeed Altitude Reporting Facility
EDT Latitude Longitude Course Direction KTS MPH feet Rate Location/Type
03:14PM 41.9394 -72.6969 323° Northwest 90 104 700  Level Boston Center
03:15PM 41.9583 -72.7164 318° Northwest 110 127 1,500 1,380 Climbing Boston Center
03:16PM 41.9789 -72.7417 312° West 102 117 3,300 1,380 Climbing Boston Center
03:17PM 41.9978 -72.7697 317° Northwest 96 110 4,400 1,140 Climbing Boston Center
03:18PM 42.0225 -72.8006 313° West 125 144 5,700 1,260 Climbing Boston Center
03:19PM 42.0494 -72.8400 313° West 122 140 7,100 960 Climbing Boston Center
03:20PM 42.0725 -72.8736 320° Northwest 122 140 7,800 420 Climbing Boston Center
03:21PM 42.0994 -72.9044 314° West 132 152 8,000 60 Climbing Boston Center
03:22PM 42.1344 -72.9525 313° West 165 190 8,000  Level Boston Center
03:23PM 42.1656 -72.9975 317° Northwest 166 191 8,000  Level Boston Center
03:24PM 42.1986 -73.0397 312° West 166 191 8,100  Climbing Boston Center
03:26PM 42.2422 -73.1047 316° Northwest 162 186 8,000  Descending Boston Center
03:27PM 42.2772 -73.1500 313° West 166 191 8,100  Climbing Boston Center
03:28PM 42.3083 -73.1953 313° West 162 186 8,100 -60 Level Boston Center
03:29PM 42.3372 -73.2378 314° West 158 182 8,000  Descending Boston Center
03:30PM 42.3681 -73.2803 315° West 160 184 8,100  Climbing Boston Center
03:31PM 42.4011 -73.3258 317° Northwest 158 182 8,000 -60 Descending Boston Center
03:32PM 42.4342 -73.3683 315° West 158 182 8,000  Level Boston Center
03:33PM 42.4672 -73.4139 306° West 159 183 8,000  Level Boston Center
03:34PM 42.4917 -73.4594 277° West 158 182 8,100  Climbing Boston Center
03:35PM 42.4975 -73.5214 277° West 160 184 8,100 -60 Level Boston Center
03:36PM 42.5031 -73.5806 274° West 161 185 8,000  Descending Boston Center
03:37PM 42.5067 -73.6456 279° West 163 188 8,100  Climbing Boston Center
03:38PM 42.5142 -73.7106 275° West 164 189 8,100 -60 Level Boston Center
03:39PM 42.5178 -73.7697 280° West 161 185 8,000  Descending Boston Center
03:40PM 42.5253 -73.8289 274° West 159 183 8,100  Climbing Boston Center
03:41PM 42.5286 -73.8939 277° West 165 190 8,100  Level Boston Center
03:42PM 42.5342 -73.9558 281° West 162 186 8,100 -60 Level Boston Center
03:43PM 42.5436 -74.0211 274° West 163 188 8,000  Descending Boston Center
03:44PM 42.5469 -74.0858 275° West 163 188 8,100  Climbing Boston Center
03:45PM 42.5503 -74.1394 278° West 161 185 8,000  Descending Boston Center
03:46PM 42.5558 -74.1906 276° West 159 183 8,100  Climbing Boston Center
03:47PM 42.5608 -74.2583 277° West 159 183 8,100 -60 Level Boston Center
03:48PM 42.5661 -74.3206 279° West 161 185 8,000  Descending Boston Center
03:50PM 42.5789 -74.4336 274° West 166 191 8,100  Climbing Boston Center
03:51PM 42.5819 -74.4872 276° West 166 191 8,100  Level Boston Center
03:52PM 42.5869 -74.5550 277° West 166 191 8,100  Level Boston Center
03:53PM 42.5922 -74.6117 276° West 161 185 8,100 -60 Level Boston Center
03:54PM 42.5972 -74.6797 278° West 166 191 8,000  Descending Boston Center
03:55PM 42.6025 -74.7306 275° West 160 184 8,100  Climbing Boston Center
03:56PM 42.6072 -74.7983 276° West 160 184 8,100  Level Boston Center
03:57PM 42.6122 -74.8606 279° West 165 190 8,100  Level Boston Center
03:58PM 42.6192 -74.9231 273° West 165 190 8,100 -60 Level Boston Center
03:59PM 42.6219 -74.9853 278° West 165 190 8,000  Descending Boston Center
04:00PM 42.6272 -75.0361 276° West 160 184 8,100  Climbing Boston Center
04:01PM 42.6319 -75.0958 277° West 160 184 8,000  Descending Boston Center
04:02PM 42.6369 -75.1553 276° West 160 184 8,100  Climbing Boston Center
04:03PM 42.6417 -75.2119 273° West 160 184 8,100  Level Boston Center
04:04PM 42.6442 -75.2769 280° West 159 183 8,100  Level Boston Center
04:05PM 42.6514 -75.3308 276° West 165 190 8,100  Level Boston Center
04:06PM 42.6561 -75.3906 273° West 160 184 8,100  Level Boston Center
04:07PM 42.6586 -75.4500 279° West 160 184 8,100  Level Boston Center
04:08PM 42.6653 -75.5067 278° West 160 184 8,100 -60 Level Boston Center
04:09PM 42.6719 -75.5719 273° West 165 190 8,000 -60 Descending Boston Center
04:10PM 42.6744 -75.6286 276° West 165 190 8,000  Level Boston Center
04:11PM 42.6792 -75.6853 276° West 160 184 8,000  Level Boston Center
04:12PM 42.6836 -75.7478 276° West 160 184 8,000  Level Boston Center
04:13PM 42.6883 -75.8044 267° West 160 184 8,000  Level Boston Center
04:13PM 42.6872 -75.8383 286° West 157 181 8,000  Level Boston Center
04:14PM 42.6928 -75.8642 267° West 160 184 8,000  Level Boston Center
04:14PM 42.6917 -75.8981 273° West 159 183 8,000  Level Boston Center
04:15PM 42.6942 -75.9575 286° West 160 184 8,000  Level Boston Center
04:16PM 42.6994 -75.9831 276° West 160 184 8,000  Level Boston Center
04:17PM 42.7039 -76.0400 271° West 160 184 8,000  Level Boston Center
04:17PM 42.7047 -76.0853 275° West 160 184 8,000  Level Boston Center
04:18PM 42.7089 -76.1447 275° West 162 186 8,000  Level Boston Center
04:19PM 42.7131 -76.2072 280° West 162 186 8,000  Level Boston Center
04:20PM 42.7197 -76.2614 273° West 160 184 8,000  Level Boston Center
04:21PM 42.7219 -76.3208 275° West 159 183 8,000  Level Boston Center
04:22PM 42.7258 -76.3833 275° West 159 183 8,000  Level Boston Center
04:23PM 42.7300 -76.4431 275° West 162 186 8,000  Level Boston Center
04:24PM 42.7342 -76.5056 273° West 158 182 8,000  Level Boston Center
04:26PM 42.7375 -76.6025 280° West 161 185 8,000  Level Cleveland Center
04:27PM 42.7461 -76.6669 272° West 159 183 8,000  Level Cleveland Center
04:28PM 42.7481 -76.7292 276° West 158 182 8,000  Level Cleveland Center
04:29PM 42.7522 -76.7883 273° West 159 183 8,000  Level Cleveland Center
04:30PM 42.7544 -76.8533 276° West 159 183 8,000  Level Cleveland Center
04:31PM 42.7581 -76.9039 275° West 158 182 8,000  Level Cleveland Center
04:32PM 42.7619 -76.9658 275° West 158 182 8,000  Level Cleveland Center
04:33PM 42.7664 -77.0364 275° West 159 183 8,000  Level Cleveland Center
04:34PM 42.7703 -77.0956 277° West 159 183 8,000  Level Cleveland Center
04:35PM 42.7764 -77.1603 275° West 160 184 8,000  Level Cleveland Center
04:36PM 42.7803 -77.2225 272° West 160 184 8,000  Level Cleveland Center
04:37PM 42.7819 -77.2817 275° West 161 185 8,000  Level Cleveland Center
04:38PM 42.7858 -77.3408 277° West 161 185 8,000  Level Cleveland Center
04:39PM 42.7917 -77.4031 269° West 162 186 8,000  Level Cleveland Center
04:40PM 42.7911 -77.4625 275° West 161 185 8,000  Level Cleveland Center
04:41PM 42.7947 -77.5217 275° West 160 184 8,000  Level Cleveland Center
04:43PM 42.7989 -77.5922 275° West 160 184 8,000  Level Cleveland Center
04:43PM 42.8022 -77.6431 274° West 160 184 8,000  Level Cleveland Center
04:44PM 42.8058 -77.7078 272° West 159 183 8,000  Level Cleveland Center
04:45PM 42.8072 -77.7617 280° West 159 183 8,000  Level Cleveland Center
04:46PM 42.8147 -77.8178 272° West 160 184 8,000 -180 Level Cleveland Center
04:47PM 42.8164 -77.8828 283° West 163 188 7,700 -420 Descending Cleveland Center
04:49PM 42.8333 -77.9833 270° West 167 192 6,900 -660 Descending Buffalo TRACON
04:50PM 42.8333 -78.0500 270° West 176 203 5,900 -900 Descending Buffalo TRACON
04:51PM 42.8333 -78.1167 270° West 177 204 5,200 -780 Descending Buffalo TRACON
04:52PM 42.8333 -78.1833 270° West 172 198 4,500 -780 Descending Buffalo TRACON
04:53PM 42.8333 -78.2333 289° West 169 194 3,800 -540 Descending Buffalo TRACON
04:54PM 42.8500 -78.3000 270° West 159 183 3,500 -300 Descending Buffalo TRACON
04:55PM 42.8500 -78.3500 270° West 148 170 3,200 -300 Descending Buffalo TRACON
04:56PM 42.8500 -78.4167 270° West 151 174 2,900 -240 Descending Buffalo TRACON
04:57PM 42.8500 -78.4667 270° West 152 175 2,700 -360 Descending Buffalo TRACON
04:58PM 42.8500 -78.5333 270° West 152 175 2,200 -420 Descending Buffalo TRACON
04:59PM 42.8500 -78.6000 270° West 155 178 1,900 -300 Descending Buffalo TRACON